Terminal Aerodrome Forecast
Issued by NWS

Home | Current Version | Previous Version | Text Only | Print | Product List | Glossary On
Versions: 1 2 3 4 5 6 7 8 9 10 11 12 13 14 15 16 17 18 19 20 21 22
000
FTUS43 KDVN 262338
TAFCID
TAF
KCID 262338Z 2700/2724 07007KT P6SM VCSH BKN045
     FM270300 09005KT P6SM VCTS BKN050CB OVC090
      TEMPO 2704/2708 2SM TSRA BR BKN025CB OVC050
     FM270800 12006KT 6SM BR VCSH OVC030
     FM271500 20005KT P6SM FEW035 SCT250=

USA.gov is the U.S. government's official web portal to all federal, state and local government web resources and services.